sensor_id;sensor_type;location;lat;lon;timestamp;pressure;altitude;pressure_sealevel;temperature;humidity
54038;BME280;39954;48.844;9.726;2023-05-14T00:00:17;96064.78;;;9.09;100.00
54038;BME280;39954;48.844;9.726;2023-05-14T00:01:25;96065.69;;;9.08;100.00
54038;BME280;39954;48.844;9.726;2023-05-14T00:02:27;96063.09;;;9.08;100.00
54038;BME280;39954;48.844;9.726;2023-05-14T00:03:32;96065.69;;;9.08;100.00
54038;BME280;39954;48.844;9.726;2023-05-14T00:04:36;96061.41;;;9.07;100.00
54038;BME280;39954;48.844;9.726;2023-05-14T00:05:40;96062.34;;;9.06;100.00
54038;BME280;39954;48.844;9.726;2023-05-14T00:06:42;96065.84;;;9.05;100.00
54038;BME280;39954;48.844;9.726;2023-05-14T00:07:47;96062.19;;;9.09;100.00
54038;BME280;39954;48.844;9.726;2023-05-14T00:08:49;96058.81;;;9.07;100.00
54038;BME280;39954;48.844;9.726;2023-05-14T00:09:54;96059.75;;;9.06;100.00
54038;BME280;39954;48.844;9.726;2023-05-14T00:10:56;96051.19;;;9.04;100.00
54038;BME280;39954;48.844;9.726;2023-05-14T00:12:01;96053.78;;;9.04;100.00
54038;BME280;39954;48.844;9.726;2023-05-14T00:13:03;96050.38;;;9.04;100.00
54038;BME280;39954;48.844;9.726;2023-05-14T00:14:08;96053.72;;;9.06;100.00
54038;BME280;39954;48.844;9.726;2023-05-14T00:15:10;96048.53;;;9.06;100.00
54038;BME280;39954;48.844;9.726;2023-05-14T00:16:14;96049.38;;;9.06;100.00
54038;BME280;39954;48.844;9.726;2023-05-14T00:17:19;96051.19;;;9.04;100.00
54038;BME280;39954;48.844;9.726;2023-05-14T00:18:24;96041.81;;;9.02;100.00
54038;BME280;39954;48.844;9.726;2023-05-14T00:19:26;96047.09;;;9.00;100.00
54038;BME280;39954;48.844;9.726;2023-05-14T00:20:31;96048.03;;;8.99;100.00
54038;BME280;39954;48.844;9.726;2023-05-14T00:21:34;96047.34;;;8.95;100.00
54038;BME280;39954;48.844;9.726;2023-05-14T00:22:39;96043.13;;;8.93;100.00
54038;BME280;39954;48.844;9.726;2023-05-14T00:23:41;96042.41;;;8.91;100.00
54038;BME280;39954;48.844;9.726;2023-05-14T00:24:46;96049.41;;;8.89;100.00
54038;BME280;39954;48.844;9.726;2023-05-14T00:25:48;96043.47;;;8.87;100.00
54038;BME280;39954;48.844;9.726;2023-05-14T00:26:53;96043.41;;;8.88;100.00
54038;BME280;39954;48.844;9.726;2023-05-14T00:27:58;96046.81;;;8.89;100.00
54038;BME280;39954;48.844;9.726;2023-05-14T00:29:00;96039.97;;;8.88;100.00
54038;BME280;39954;48.844;9.726;2023-05-14T00:30:05;96040.72;;;8.90;100.00
54038;BME280;39954;48.844;9.726;2023-05-14T00:31:08;96039.81;;;8.91;100.00
54038;BME280;39954;48.844;9.726;2023-05-14T00:32:12;96038.94;;;8.90;100.00
54038;BME280;39954;48.844;9.726;2023-05-14T00:33:17;96036.28;;;8.92;100.00
54038;BME280;39954;48.844;9.726;2023-05-14T00:34:22;96039.81;;;8.91;100.00
54038;BME280;39954;48.844;9.726;2023-05-14T00:35:24;96036.44;;;8.89;100.00
54038;BME280;39954;48.844;9.726;2023-05-14T00:36:29;96037.13;;;8.92;100.00
54038;BME280;39954;48.844;9.726;2023-05-14T00:37:31;96039.81;;;8.91;100.00
54038;BME280;39954;48.844;9.726;2023-05-14T00:38:37;96027.75;;;8.90;100.00
54038;BME280;39954;48.844;9.726;2023-05-14T00:39:39;96038.72;;;8.95;100.00
54038;BME280;39954;48.844;9.726;2023-05-14T00:40:44;96030.19;;;8.93;100.00
54038;BME280;39954;48.844;9.726;2023-05-14T00:41:51;96026.84;;;8.91;100.00
54038;BME280;39954;48.844;9.726;2023-05-14T00:42:56;96033.91;;;8.87;100.00
54038;BME280;39954;48.844;9.726;2023-05-14T00:43:58;96025.25;;;8.88;100.00
54038;BME280;39954;48.844;9.726;2023-05-14T00:45:05;96025.47;;;8.84;100.00
54038;BME280;39954;48.844;9.726;2023-05-14T00:46:07;96032.25;;;8.86;100.00
54038;BME280;39954;48.844;9.726;2023-05-14T00:47:13;96026.25;;;8.86;100.00
54038;BME280;39954;48.844;9.726;2023-05-14T00:48:18;96029.72;;;8.85;100.00
54038;BME280;39954;48.844;9.726;2023-05-14T00:49:23;96029.72;;;8.85;100.00
54038;BME280;39954;48.844;9.726;2023-05-14T00:50:26;96026.41;;;8.83;100.00
54038;BME280;39954;48.844;9.726;2023-05-14T00:51:30;96032.47;;;8.82;100.00
54038;BME280;39954;48.844;9.726;2023-05-14T00:52:33;96032.63;;;8.79;100.00
54038;BME280;39954;48.844;9.726;2023-05-14T00:53:38;96039.59;;;8.78;100.00
54038;BME280;39954;48.844;9.726;2023-05-14T00:54:41;96037.91;;;8.77;100.00
54038;BME280;39954;48.844;9.726;2023-05-14T00:55:46;96032.72;;;8.77;100.00
54038;BME280;39954;48.844;9.726;2023-05-14T00:56:49;96031.91;;;8.77;100.00
54038;BME280;39954;48.844;9.726;2023-05-14T00:57:57;96036.38;;;8.73;100.00
54038;BME280;39954;48.844;9.726;2023-05-14T00:59:00;96030.53;;;8.69;100.00
54038;BME280;39954;48.844;9.726;2023-05-14T01:00:06;96023.81;;;8.65;100.00
54038;BME280;39954;48.844;9.726;2023-05-14T01:01:09;96027.31;;;8.64;100.00
54038;BME280;39954;48.844;9.726;2023-05-14T01:02:16;96030.06;;;8.61;100.00
54038;BME280;39954;48.844;9.726;2023-05-14T01:03:20;96029.28;;;8.59;100.00
54038;BME280;39954;48.844;9.726;2023-05-14T01:04:25;96032.03;;;8.56;100.00
54038;BME280;39954;48.844;9.726;2023-05-14T01:05:31;96022.81;;;8.50;100.00
54038;BME280;39954;48.844;9.726;2023-05-14T01:06:46;96024.63;;;8.48;100.00
54038;BME280;39954;48.844;9.726;2023-05-14T01:07:56;96029.09;;;8.46;100.00
54038;BME280;39954;48.844;9.726;2023-05-14T01:09:08;96020.69;;;8.41;100.00
54038;BME280;39954;48.844;9.726;2023-05-14T01:10:18;96017.47;;;8.36;100.00
54038;BME280;39954;48.844;9.726;2023-05-14T01:11:28;96020.41;;;8.28;100.00
54038;BME280;39954;48.844;9.726;2023-05-14T01:12:35;96019.72;;;8.25;100.00
54038;BME280;39954;48.844;9.726;2023-05-14T01:13:50;96023.31;;;8.22;100.00
54038;BME280;39954;48.844;9.726;2023-05-14T01:15:00;96024.38;;;8.18;100.00
54038;BME280;39954;48.844;9.726;2023-05-14T01:16:08;96015.84;;;8.16;100.00
54038;BME280;39954;48.844;9.726;2023-05-14T01:17:13;96023.66;;;8.15;100.00
54038;BME280;39954;48.844;9.726;2023-05-14T01:18:24;96018.59;;;8.13;100.00
54038;BME280;39954;48.844;9.726;2023-05-14T01:19:34;96022.97;;;8.11;100.00
54038;BME280;39954;48.844;9.726;2023-05-14T01:20:41;96025.56;;;8.11;100.00
54038;BME280;39954;48.844;9.726;2023-05-14T01:21:46;96025.56;;;8.11;100.00
54038;BME280;39954;48.844;9.726;2023-05-14T01:22:50;96020.34;;;8.13;100.00
54038;BME280;39954;48.844;9.726;2023-05-14T01:23:53;96020.34;;;8.13;100.00
54038;BME280;39954;48.844;9.726;2023-05-14T01:24:57;96022.84;;;8.14;100.00
54038;BME280;39954;48.844;9.726;2023-05-14T01:26:02;96022.69;;;8.17;100.00
54038;BME280;39954;48.844;9.726;2023-05-14T01:27:09;96026.97;;;8.18;100.00
54038;BME280;39954;48.844;9.726;2023-05-14T01:28:16;96032.06;;;8.20;100.00
54038;BME280;39954;48.844;9.726;2023-05-14T01:29:21;96027.81;;;8.19;100.00
54038;BME280;39954;48.844;9.726;2023-05-14T01:30:29;96027.72;;;8.20;100.00
54038;BME280;39954;48.844;9.726;2023-05-14T01:31:35;96035.41;;;8.22;100.00
54038;BME280;39954;48.844;9.726;2023-05-14T01:32:43;96027.59;;;8.23;100.00
54038;BME280;39954;48.844;9.726;2023-05-14T01:33:48;96027.44;;;8.26;100.00
54038;BME280;39954;48.844;9.726;2023-05-14T01:34:55;96029.78;;;8.31;100.00
54038;BME280;39954;48.844;9.726;2023-05-14T01:35:59;96033.97;;;8.34;100.00
54038;BME280;39954;48.844;9.726;2023-05-14T01:37:09;96027.91;;;8.35;100.00
54038;BME280;39954;48.844;9.726;2023-05-14T01:38:14;96027.75;;;8.38;100.00
54038;BME280;39954;48.844;9.726;2023-05-14T01:39:25;96031.06;;;8.41;100.00
54038;BME280;39954;48.844;9.726;2023-05-14T01:40:30;96033.44;;;8.46;100.00
54038;BME280;39954;48.844;9.726;2023-05-14T01:41:37;96028.16;;;8.47;100.00
54038;BME280;39954;48.844;9.726;2023-05-14T01:42:40;96027.31;;;8.47;100.00
54038;BME280;39954;48.844;9.726;2023-05-14T01:43:46;96028.25;;;8.46;100.00
54038;BME280;39954;48.844;9.726;2023-05-14T01:44:48;96029.97;;;8.45;100.00
54038;BME280;39954;48.844;9.726;2023-05-14T01:45:53;96028.16;;;8.47;100.00
54038;BME280;39954;48.844;9.726;2023-05-14T01:46:56;96027.38;;;8.45;100.00
54038;BME280;39954;48.844;9.726;2023-05-14T01:48:01;96019.63;;;8.45;100.00
54038;BME280;39954;48.844;9.726;2023-05-14T01:49:03;96028.09;;;8.49;100.00
54038;BME280;39954;48.844;9.726;2023-05-14T01:50:09;96029.00;;;8.48;100.00
54038;BME280;39954;48.844;9.726;2023-05-14T01:51:11;96025.66;;;8.46;100.00
54038;BME280;39954;48.844;9.726;2023-05-14T01:52:19;96021.22;;;8.48;100.00
54038;BME280;39954;48.844;9.726;2023-05-14T01:53:22;96025.34;;;8.52;100.00
54038;BME280;39954;48.844;9.726;2023-05-14T01:54:26;96021.84;;;8.53;100.00
54038;BME280;39954;48.844;9.726;2023-05-14T01:55:28;96025.97;;;8.57;100.00
54038;BME280;39954;48.844;9.726;2023-05-14T01:56:33;96021.69;;;8.56;100.00
54038;BME280;39954;48.844;9.726;2023-05-14T01:57:36;96019.91;;;8.57;100.00
54038;BME280;39954;48.844;9.726;2023-05-14T01:58:40;96018.25;;;8.56;100.00
54038;BME280;39954;48.844;9.726;2023-05-14T01:59:42;96020.91;;;8.54;100.00
54038;BME280;39954;48.844;9.726;2023-05-14T02:00:47;96026.19;;;8.52;100.00
54038;BME280;39954;48.844;9.726;2023-05-14T02:01:49;96019.41;;;8.50;100.00
54038;BME280;39954;48.844;9.726;2023-05-14T02:02:54;96021.00;;;8.52;100.00
54038;BME280;39954;48.844;9.726;2023-05-14T02:03:57;96017.59;;;8.52;100.00
54038;BME280;39954;48.844;9.726;2023-05-14T02:05:02;96017.72;;;8.49;100.00
54038;BME280;39954;48.844;9.726;2023-05-14T02:06:07;96021.22;;;8.48;100.00
54038;BME280;39954;48.844;9.726;2023-05-14T02:07:12;96015.88;;;8.51;100.00
54038;BME280;39954;48.844;9.726;2023-05-14T02:08:17;96017.59;;;8.52;100.00
54038;BME280;39954;48.844;9.726;2023-05-14T02:09:21;96014.84;;;8.55;100.00
54038;BME280;39954;48.844;9.726;2023-05-14T02:10:24;96014.00;;;8.55;100.00
54038;BME280;39954;48.844;9.726;2023-05-14T02:11:28;96019.75;;;8.60;100.00
54038;BME280;39954;48.844;9.726;2023-05-14T02:12:30;96017.25;;;8.58;100.00
54038;BME280;39954;48.844;9.726;2023-05-14T02:13:35;96017.94;;;8.62;100.00
54038;BME280;39954;48.844;9.726;2023-05-14T02:14:37;96014.38;;;8.64;100.00
54038;BME280;39954;48.844;9.726;2023-05-14T02:15:42;96010.94;;;8.64;100.00
54038;BME280;39954;48.844;9.726;2023-05-14T02:16:44;96012.69;;;8.63;100.00
54038;BME280;39954;48.844;9.726;2023-05-14T02:17:49;96010.00;;;8.65;100.00
54038;BME280;39954;48.844;9.726;2023-05-14T02:18:51;96016.97;;;8.64;100.00
54038;BME280;39954;48.844;9.726;2023-05-14T02:19:56;96011.78;;;8.64;100.00
54038;BME280;39954;48.844;9.726;2023-05-14T02:20:58;96011.94;;;8.61;100.00
54038;BME280;39954;48.844;9.726;2023-05-14T02:22:03;96018.72;;;8.64;100.00
54038;BME280;39954;48.844;9.726;2023-05-14T02:23:05;96010.00;;;8.65;100.00
54038;BME280;39954;48.844;9.726;2023-05-14T02:24:13;96007.44;;;8.65;100.00
54038;BME280;39954;48.844;9.726;2023-05-14T02:25:18;96007.44;;;8.65;100.00
54038;BME280;39954;48.844;9.726;2023-05-14T02:26:20;96010.09;;;8.63;100.00
54038;BME280;39954;48.844;9.726;2023-05-14T02:27:25;96007.44;;;8.65;100.00
54038;BME280;39954;48.844;9.726;2023-05-14T02:28:27;96017.88;;;8.63;100.00
54038;BME280;39954;48.844;9.726;2023-05-14T02:29:32;96010.09;;;8.63;100.00
54038;BME280;39954;48.844;9.726;2023-05-14T02:30:34;96012.59;;;8.65;100.00
54038;BME280;39954;48.844;9.726;2023-05-14T02:31:38;96011.63;;;8.67;100.00
54038;BME280;39954;48.844;9.726;2023-05-14T02:32:41;96015.81;;;8.70;100.00
54038;BME280;39954;48.844;9.726;2023-05-14T02:33:45;96011.56;;;8.69;100.00
54038;BME280;39954;48.844;9.726;2023-05-14T02:34:50;96009.78;;;8.69;100.00
54038;BME280;39954;48.844;9.726;2023-05-14T02:35:52;96015.91;;;8.68;100.00
54038;BME280;39954;48.844;9.726;2023-05-14T02:36:57;96012.38;;;8.69;100.00
54038;BME280;39954;48.844;9.726;2023-05-14T02:38:00;96013.16;;;8.71;100.00
54038;BME280;39954;48.844;9.726;2023-05-14T02:39:04;96007.97;;;8.71;100.00
54038;BME280;39954;48.844;9.726;2023-05-14T02:40:10;96014.16;;;8.69;100.00
54038;BME280;39954;48.844;9.726;2023-05-14T02:41:14;96008.03;;;8.70;100.00
54038;BME280;39954;48.844;9.726;2023-05-14T02:42:19;96008.03;;;8.70;100.00
54038;BME280;39954;48.844;9.726;2023-05-14T02:43:21;96011.31;;;8.73;100.00
54038;BME280;39954;48.844;9.726;2023-05-14T02:44:26;96012.22;;;8.72;100.00
54038;BME280;39954;48.844;9.726;2023-05-14T02:45:28;96006.28;;;8.70;100.00
54038;BME280;39954;48.844;9.726;2023-05-14T02:46:33;96007.97;;;8.71;100.00
54038;BME280;39954;48.844;9.726;2023-05-14T02:47:36;96013.97;;;8.72;100.00
54038;BME280;39954;48.844;9.726;2023-05-14T02:48:40;96015.75;;;8.71;100.00
54038;BME280;39954;48.844;9.726;2023-05-14T02:49:42;96002.69;;;8.73;100.00
54038;BME280;39954;48.844;9.726;2023-05-14T02:50:48;96005.28;;;8.73;100.00
54038;BME280;39954;48.844;9.726;2023-05-14T02:51:50;96011.47;;;8.70;100.00
54038;BME280;39954;48.844;9.726;2023-05-14T02:52:55;96006.44;;;8.67;100.00
54038;BME280;39954;48.844;9.726;2023-05-14T02:53:57;96014.16;;;8.69;100.00
54038;BME280;39954;48.844;9.726;2023-05-14T02:55:02;96011.63;;;8.67;100.00
54038;BME280;39954;48.844;9.726;2023-05-14T02:56:06;96013.44;;;8.65;100.00
54038;BME280;39954;48.844;9.726;2023-05-14T02:57:11;96004.78;;;8.66;100.00
54038;BME280;39954;48.844;9.726;2023-05-14T02:58:14;96009.78;;;8.69;100.00
54038;BME280;39954;48.844;9.726;2023-05-14T02:59:26;96004.38;;;8.57;100.00
54038;BME280;39954;48.844;9.726;2023-05-14T03:00:29;96009.41;;;8.60;100.00
54038;BME280;39954;48.844;9.726;2023-05-14T03:01:34;96010.16;;;8.62;100.00
54038;BME280;39954;48.844;9.726;2023-05-14T03:02:37;96015.28;;;8.63;100.00
54038;BME280;39954;48.844;9.726;2023-05-14T03:03:44;96015.28;;;8.63;100.00
54038;BME280;39954;48.844;9.726;2023-05-14T03:04:47;96011.94;;;8.61;100.00
54038;BME280;39954;48.844;9.726;2023-05-14T03:05:52;96006.59;;;8.64;100.00
54038;BME280;39954;48.844;9.726;2023-05-14T03:06:54;96014.16;;;8.69;100.00
54038;BME280;39954;48.844;9.726;2023-05-14T03:07:59;96009.19;;;8.64;100.00
54038;BME280;39954;48.844;9.726;2023-05-14T03:09:01;96010.16;;;8.62;100.00
54038;BME280;39954;48.844;9.726;2023-05-14T03:10:07;96009.41;;;8.60;100.00
54038;BME280;39954;48.844;9.726;2023-05-14T03:11:12;96013.69;;;8.61;100.00
54038;BME280;39954;48.844;9.726;2023-05-14T03:12:17;96012.09;;;8.58;100.00
54038;BME280;39954;48.844;9.726;2023-05-14T03:13:19;96007.84;;;8.57;100.00
54038;BME280;39954;48.844;9.726;2023-05-14T03:14:24;96005.25;;;8.57;100.00
54038;BME280;39954;48.844;9.726;2023-05-14T03:15:26;96008.81;;;8.55;100.00
54038;BME280;39954;48.844;9.726;2023-05-14T03:16:30;96014.75;;;8.57;100.00
54038;BME280;39954;48.844;9.726;2023-05-14T03:17:33;96012.84;;;8.60;100.00
54038;BME280;39954;48.844;9.726;2023-05-14T03:18:37;96012.84;;;8.60;100.00
54038;BME280;39954;48.844;9.726;2023-05-14T03:19:40;96009.41;;;8.60;100.00
54038;BME280;39954;48.844;9.726;2023-05-14T03:20:44;96015.44;;;8.60;100.00
54038;BME280;39954;48.844;9.726;2023-05-14T03:21:47;96018.19;;;8.57;100.00
54038;BME280;39954;48.844;9.726;2023-05-14T03:22:51;96009.50;;;8.58;100.00
54038;BME280;39954;48.844;9.726;2023-05-14T03:23:53;96005.47;;;8.52;100.00
54038;BME280;39954;48.844;9.726;2023-05-14T03:24:58;96011.47;;;8.53;100.00
54038;BME280;39954;48.844;9.726;2023-05-14T03:26:00;96009.19;;;8.47;100.00
54038;BME280;39954;48.844;9.726;2023-05-14T03:27:08;96009.19;;;8.47;100.00
54038;BME280;39954;48.844;9.726;2023-05-14T03:28:10;96010.84;;;8.48;100.00
54038;BME280;39954;48.844;9.726;2023-05-14T03:29:14;96020.59;;;8.43;100.00
54038;BME280;39954;48.844;9.726;2023-05-14T03:30:18;96014.38;;;8.47;100.00
54038;BME280;39954;48.844;9.726;2023-05-14T03:31:23;96011.78;;;8.47;100.00
54038;BME280;39954;48.844;9.726;2023-05-14T03:32:28;96008.44;;;8.45;100.00
54038;BME280;39954;48.844;9.726;2023-05-14T03:33:33;96010.94;;;8.46;100.00
54038;BME280;39954;48.844;9.726;2023-05-14T03:34:35;96009.34;;;8.44;100.00
54038;BME280;39954;48.844;9.726;2023-05-14T03:35:40;96010.25;;;8.43;100.00
54038;BME280;39954;48.844;9.726;2023-05-14T03:36:42;96006.81;;;8.42;100.00
54038;BME280;39954;48.844;9.726;2023-05-14T03:37:47;96012.00;;;8.42;100.00
54038;BME280;39954;48.844;9.726;2023-05-14T03:38:50;96010.25;;;8.43;100.00
54038;BME280;39954;48.844;9.726;2023-05-14T03:39:54;96009.34;;;8.44;100.00
54038;BME280;39954;48.844;9.726;2023-05-14T03:40:57;96014.38;;;8.47;100.00
54038;BME280;39954;48.844;9.726;2023-05-14T03:42:01;96012.72;;;8.46;100.00
54038;BME280;39954;48.844;9.726;2023-05-14T03:43:06;96010.84;;;8.48;100.00
54038;BME280;39954;48.844;9.726;2023-05-14T03:44:12;96013.44;;;8.48;100.00
54038;BME280;39954;48.844;9.726;2023-05-14T03:45:14;96012.72;;;8.46;100.00
54038;BME280;39954;48.844;9.726;2023-05-14T03:46:19;96010.84;;;8.48;100.00
54038;BME280;39954;48.844;9.726;2023-05-14T03:47:21;96010.03;;;8.47;100.00
54038;BME280;39954;48.844;9.726;2023-05-14T03:48:25;96009.09;;;8.48;100.00
54038;BME280;39954;48.844;9.726;2023-05-14T03:49:28;96014.22;;;8.50;100.00
54038;BME280;39954;48.844;9.726;2023-05-14T03:50:32;96008.06;;;8.52;100.00
54038;BME280;39954;48.844;9.726;2023-05-14T03:51:35;96013.38;;;8.49;100.00
54038;BME280;39954;48.844;9.726;2023-05-14T03:52:39;96010.03;;;8.47;100.00
54038;BME280;39954;48.844;9.726;2023-05-14T03:53:42;96009.03;;;8.50;100.00
54038;BME280;39954;48.844;9.726;2023-05-14T03:54:46;96009.81;;;8.52;100.00
54038;BME280;39954;48.844;9.726;2023-05-14T03:55:48;96011.41;;;8.55;100.00
54038;BME280;39954;48.844;9.726;2023-05-14T03:56:53;96010.53;;;8.54;100.00
54038;BME280;39954;48.844;9.726;2023-05-14T03:57:55;96008.88;;;8.53;100.00
54038;BME280;39954;48.844;9.726;2023-05-14T03:59:02;96002.66;;;8.57;100.00
54038;BME280;39954;48.844;9.726;2023-05-14T04:00:06;96000.06;;;8.57;100.00
54038;BME280;39954;48.844;9.726;2023-05-14T04:01:11;96007.84;;;8.57;100.00
54038;BME280;39954;48.844;9.726;2023-05-14T04:02:13;96010.44;;;8.57;100.00
54038;BME280;39954;48.844;9.726;2023-05-14T04:03:18;96012.09;;;8.58;100.00
54038;BME280;39954;48.844;9.726;2023-05-14T04:04:20;96010.44;;;8.57;100.00
54038;BME280;39954;48.844;9.726;2023-05-14T04:05:25;96008.72;;;8.56;100.00
54038;BME280;39954;48.844;9.726;2023-05-14T04:06:27;96012.25;;;8.55;100.00
54038;BME280;39954;48.844;9.726;2023-05-14T04:07:32;96007.38;;;8.49;100.00
54038;BME280;39954;48.844;9.726;2023-05-14T04:08:34;96005.69;;;8.48;100.00
54038;BME280;39954;48.844;9.726;2023-05-14T04:09:39;96005.47;;;8.52;100.00
54038;BME280;39954;48.844;9.726;2023-05-14T04:10:41;96006.22;;;8.55;100.00
54038;BME280;39954;48.844;9.726;2023-05-14T04:11:47;96013.91;;;8.56;100.00
54038;BME280;39954;48.844;9.726;2023-05-14T04:12:49;96004.38;;;8.57;100.00
54038;BME280;39954;48.844;9.726;2023-05-14T04:13:53;96004.47;;;8.55;100.00
54038;BME280;39954;48.844;9.726;2023-05-14T04:14:58;96008.13;;;8.51;100.00
54038;BME280;39954;48.844;9.726;2023-05-14T04:16:04;96004.47;;;8.55;100.00
54038;BME280;39954;48.844;9.726;2023-05-14T04:17:06;96010.63;;;8.52;100.00
54038;BME280;39954;48.844;9.726;2023-05-14T04:18:11;95999.44;;;8.52;100.00
54038;BME280;39954;48.844;9.726;2023-05-14T04:19:13;96007.22;;;8.52;100.00
54038;BME280;39954;48.844;9.726;2023-05-14T04:20:19;96002.03;;;8.52;100.00
54038;BME280;39954;48.844;9.726;2023-05-14T04:21:21;96007.97;;;8.54;100.00
54038;BME280;39954;48.844;9.726;2023-05-14T04:22:25;96000.50;;;8.48;100.00
54038;BME280;39954;48.844;9.726;2023-05-14T04:23:28;96000.50;;;8.48;100.00
54038;BME280;39954;48.844;9.726;2023-05-14T04:24:32;95997.75;;;8.51;100.00
54038;BME280;39954;48.844;9.726;2023-05-14T04:25:34;95995.94;;;8.53;100.00
54038;BME280;39954;48.844;9.726;2023-05-14T04:26:39;96000.19;;;8.54;100.00
54038;BME280;39954;48.844;9.726;2023-05-14T04:27:41;95998.22;;;8.59;100.00
54038;BME280;39954;48.844;9.726;2023-05-14T04:28:46;95995.63;;;8.59;100.00
54038;BME280;39954;48.844;9.726;2023-05-14T04:29:49;95997.31;;;8.60;100.00
54038;BME280;39954;48.844;9.726;2023-05-14T04:30:56;95997.38;;;8.59;100.00
54038;BME280;39954;48.844;9.726;2023-05-14T04:31:58;95992.03;;;8.62;100.00
54038;BME280;39954;48.844;9.726;2023-05-14T04:33:03;95996.53;;;8.58;100.00
54038;BME280;39954;48.844;9.726;2023-05-14T04:34:05;95995.09;;;8.52;100.00
54038;BME280;39954;48.844;9.726;2023-05-14T04:35:10;96000.19;;;8.54;100.00
54038;BME280;39954;48.844;9.726;2023-05-14T04:36:13;96000.06;;;8.57;100.00
54038;BME280;39954;48.844;9.726;2023-05-14T04:37:18;95994.03;;;8.57;100.00
54038;BME280;39954;48.844;9.726;2023-05-14T04:38:20;95999.03;;;8.60;100.00
54038;BME280;39954;48.844;9.726;2023-05-14T04:39:25;95987.84;;;8.59;100.00
54038;BME280;39954;48.844;9.726;2023-05-14T04:40:27;95996.59;;;8.57;100.00
54038;BME280;39954;48.844;9.726;2023-05-14T04:41:32;95998.06;;;8.62;100.00
54038;BME280;39954;48.844;9.726;2023-05-14T04:42:34;95998.06;;;8.62;100.00
54038;BME280;39954;48.844;9.726;2023-05-14T04:43:39;95993.78;;;8.61;100.00
54038;BME280;39954;48.844;9.726;2023-05-14T04:44:41;95998.06;;;8.62;100.00
54038;BME280;39954;48.844;9.726;2023-05-14T04:45:45;95997.22;;;8.62;100.00
54038;BME280;39954;48.844;9.726;2023-05-14T04:46:50;96000.66;;;8.62;100.00
54038;BME280;39954;48.844;9.726;2023-05-14T04:47:55;96003.06;;;8.65;100.00
54038;BME280;39954;48.844;9.726;2023-05-14T04:48:57;96001.25;;;8.67;100.00
54038;BME280;39954;48.844;9.726;2023-05-14T04:50:02;95998.75;;;8.66;100.00
54038;BME280;39954;48.844;9.726;2023-05-14T04:51:05;95994.41;;;8.66;100.00
54038;BME280;39954;48.844;9.726;2023-05-14T04:52:10;95997.81;;;8.67;100.00
54038;BME280;39954;48.844;9.726;2023-05-14T04:53:12;95997.00;;;8.66;100.00
54038;BME280;39954;48.844;9.726;2023-05-14T04:54:16;95996.91;;;8.68;100.00
54038;BME280;39954;48.844;9.726;2023-05-14T04:55:19;96000.19;;;8.71;100.00
54038;BME280;39954;48.844;9.726;2023-05-14T04:56:24;95995.75;;;8.73;100.00
54038;BME280;39954;48.844;9.726;2023-05-14T04:57:26;96000.94;;;8.73;100.00
54038;BME280;39954;48.844;9.726;2023-05-14T04:58:31;96000.09;;;8.73;100.00
54038;BME280;39954;48.844;9.726;2023-05-14T04:59:35;95994.69;;;8.78;100.00
54038;BME280;39954;48.844;9.726;2023-05-14T05:00:40;95996.38;;;8.79;100.00
54038;BME280;39954;48.844;9.726;2023-05-14T05:01:42;95999.66;;;8.82;100.00
54038;BME280;39954;48.844;9.726;2023-05-14T05:02:50;95993.63;;;8.82;100.00
54038;BME280;39954;48.844;9.726;2023-05-14T05:03:52;95998.63;;;8.85;100.00
54038;BME280;39954;48.844;9.726;2023-05-14T05:04:58;95996.66;;;8.90;100.00
54038;BME280;39954;48.844;9.726;2023-05-14T05:06:00;95994.00;;;8.91;100.00
54038;BME280;39954;48.844;9.726;2023-05-14T05:07:05;95990.47;;;8.92;100.00
54038;BME280;39954;48.844;9.726;2023-05-14T05:08:07;95995.50;;;8.95;100.00
54038;BME280;39954;48.844;9.726;2023-05-14T05:09:12;95989.63;;;8.92;100.00
54038;BME280;39954;48.844;9.726;2023-05-14T05:10:14;95999.84;;;8.95;100.00
54038;BME280;39954;48.844;9.726;2023-05-14T05:11:19;95992.06;;;8.95;100.00
54038;BME280;39954;48.844;9.726;2023-05-14T05:12:22;95989.31;;;8.98;100.00
54038;BME280;39954;48.844;9.726;2023-05-14T05:13:26;95993.59;;;8.99;100.00
54038;BME280;39954;48.844;9.726;2023-05-14T05:14:29;95995.44;;;8.97;100.00
54038;BME280;39954;48.844;9.726;2023-05-14T05:15:33;95995.81;;;8.89;100.00
54038;BME280;39954;48.844;9.726;2023-05-14T05:16:36;95993.16;;;8.91;100.00
54038;BME280;39954;48.844;9.726;2023-05-14T05:17:40;95989.47;;;8.95;100.00
54038;BME280;39954;48.844;9.726;2023-05-14T05:18:45;95992.84;;;8.97;100.00
54038;BME280;39954;48.844;9.726;2023-05-14T05:19:50;95992.69;;;9.00;100.00
54038;BME280;39954;48.844;9.726;2023-05-14T05:20:53;95994.34;;;9.01;100.00
54038;BME280;39954;48.844;9.726;2023-05-14T05:21:58;95995.09;;;9.03;100.00
54038;BME280;39954;48.844;9.726;2023-05-14T05:23:01;95999.19;;;9.07;100.00
54038;BME280;39954;48.844;9.726;2023-05-14T05:24:06;95997.31;;;9.11;100.00
54038;BME280;39954;48.844;9.726;2023-05-14T05:25:08;95990.19;;;9.14;100.00
54038;BME280;39954;48.844;9.726;2023-05-14T05:26:13;95996.88;;;9.18;100.00
54038;BME280;39954;48.844;9.726;2023-05-14T05:27:15;95988.03;;;9.23;100.00
54038;BME280;39954;48.844;9.726;2023-05-14T05:28:21;95985.03;;;9.30;100.00
54038;BME280;39954;48.844;9.726;2023-05-14T05:29:23;95992.72;;;9.32;100.00
54038;BME280;39954;48.844;9.726;2023-05-14T05:30:28;95986.47;;;9.36;100.00
54038;BME280;39954;48.844;9.726;2023-05-14T05:31:31;95990.84;;;9.35;100.00
54038;BME280;39954;48.844;9.726;2023-05-14T05:32:36;95987.06;;;9.41;100.00
54038;BME280;39954;48.844;9.726;2023-05-14T05:33:38;95991.16;;;9.45;100.00
54038;BME280;39954;48.844;9.726;2023-05-14T05:34:46;95983.03;;;9.51;100.00
54038;BME280;39954;48.844;9.726;2023-05-14T05:35:48;95982.81;;;9.56;100.00
54038;BME280;39954;48.844;9.726;2023-05-14T05:36:53;95987.00;;;9.58;100.00
54038;BME280;39954;48.844;9.726;2023-05-14T05:37:56;95978.88;;;9.64;100.00
54038;BME280;39954;48.844;9.726;2023-05-14T05:39:02;95989.06;;;9.68;100.00
54038;BME280;39954;48.844;9.726;2023-05-14T05:40:06;95988.84;;;9.72;100.00